Time;durP1;ratioP1;P1;durP2;ratioP2;P2;SDS_P1;SDS_P2;PMS_P1;PMS_P2;Temp;Humidity;BMP_temperature;BMP_pressure;BME280_temperature;BME280_humidity;BME280_pressure;Samples;Min_cycle;Max_cycle;Signal;HPM_P1;HPM_P2
2023/07/04 00:01:49;;;;;;;7.97;4.00;;;18.70;90.80;;;;;;5058705;28;20199;-62
2023/07/04 00:04:19;;;;;;;6.07;3.70;;;18.60;91.50;;;;;;5058653;28;20214;-63
2023/07/04 00:06:47;;;;;;;9.13;4.10;;;18.60;91.80;;;;;;5057518;28;20307;-63
2023/07/04 00:09:13;;;;;;;4.73;3.60;;;18.60;91.60;;;;;;5057598;28;20200;-63
2023/07/04 00:11:39;;;;;;;7.33;3.70;;;18.70;91.30;;;;;;5057450;28;20684;-62
2023/07/04 00:14:04;;;;;;;8.37;5.00;;;18.70;91.20;;;;;;5058532;28;20237;-63
2023/07/04 00:16:30;;;;;;;8.33;3.73;;;18.70;91.50;;;;;;5058333;28;20219;-63
2023/07/04 00:18:56;;;;;;;7.77;4.33;;;18.70;91.30;;;;;;5058362;28;20210;-63
2023/07/04 00:21:22;;;;;;;6.90;4.00;;;18.80;91.00;;;;;;5055829;28;20199;-63
2023/07/04 00:23:52;;;;;;;8.13;3.97;;;18.70;91.10;;;;;;5058199;28;20216;-63
2023/07/04 00:26:20;;;;;;;5.20;3.67;;;18.70;91.80;;;;;;5058117;28;20222;-62
2023/07/04 00:28:46;;;;;;;7.13;3.73;;;18.60;92.00;;;;;;5057862;28;20235;-63
2023/07/04 00:31:15;;;;;;;7.53;3.73;;;18.50;91.70;;;;;;5056570;28;20210;-63
2023/07/04 00:33:42;;;;;;;8.67;3.77;;;18.70;91.50;;;;;;5058041;28;20231;-62
2023/07/04 00:36:11;;;;;;;3.63;3.27;;;18.70;91.40;;;;;;5057980;28;20207;-63
2023/07/04 00:38:38;;;;;;;6.17;3.53;;;18.70;91.30;;;;;;5057828;28;20692;-62
2023/07/04 00:41:20;;;;;;;6.27;4.00;;;18.60;91.70;;;;;;5057612;28;20232;-63
2023/07/04 00:44:13;;;;;;;5.80;3.93;;;18.60;91.50;;;;;;5057832;28;20331;-62
2023/07/04 00:46:52;;;;;;;9.87;5.17;;;18.60;91.50;;;;;;5051900;28;20565;-62
2023/07/04 00:49:26;;;;;;;7.57;3.90;;;18.60;91.60;;;;;;5057932;28;20608;-63
2023/07/04 00:52:00;;;;;;;7.70;3.80;;;18.50;91.70;;;;;;5057907;28;20700;-62
2023/07/04 00:54:29;;;;;;;8.40;4.57;;;18.50;92.00;;;;;;5048785;28;20205;-62
2023/07/04 00:57:02;;;;;;;9.73;4.30;;;18.40;92.30;;;;;;5057698;28;20215;-63
2023/07/04 00:59:34;;;;;;;7.13;4.50;;;18.40;92.80;;;;;;5056784;28;20282;-63
2023/07/04 01:02:00;;;;;;;5.90;3.40;;;18.50;92.30;;;;;;5057602;28;20588;-63
2023/07/04 01:04:26;;;;;;;9.90;4.13;;;18.40;92.30;;;;;;5052441;28;20257;-63
2023/07/04 01:07:04;;;;;;;10.20;4.13;;;18.40;92.60;;;;;;5056489;28;20676;-63
2023/07/04 01:09:31;;;;;;;7.40;3.70;;;18.40;92.50;;;;;;5057270;28;20207;-63
2023/07/04 01:11:57;;;;;;;6.50;3.63;;;18.40;92.60;;;;;;5057221;28;20680;-63
2023/07/04 01:14:25;;;;;;;6.37;3.77;;;18.40;92.70;;;;;;5057052;28;20284;-64
2023/07/04 01:16:52;;;;;;;7.37;4.60;;;18.40;93.00;;;;;;5057304;28;20574;-62
2023/07/04 01:19:28;;;;;;;7.67;4.30;;;18.30;93.10;;;;;;5055635;28;20649;-63
2023/07/04 01:22:07;;;;;;;8.60;4.10;;;18.30;93.50;;;;;;5057497;28;20267;-63
2023/07/04 01:25:09;;;;;;;10.03;4.13;;;18.30;93.10;;;;;;5056321;28;20245;-62
2023/07/04 01:27:36;;;;;;;8.07;3.57;;;18.30;93.00;;;;;;5057275;28;20209;-62
2023/07/04 01:30:05;;;;;;;10.53;4.77;;;18.30;93.10;;;;;;5056797;28;20260;-63
2023/07/04 01:32:32;;;;;;;8.83;4.07;;;18.30;93.00;;;;;;5056627;28;21001;-63
2023/07/04 01:35:00;;;;;;;7.33;4.83;;;18.40;92.90;;;;;;5056502;28;20210;-63
2023/07/04 01:37:29;;;;;;;7.43;3.87;;;18.40;92.80;;;;;;5056903;28;20280;-62
2023/07/04 01:39:56;;;;;;;7.60;3.87;;;18.30;92.90;;;;;;5055531;28;20241;-62
2023/07/04 01:42:22;;;;;;;5.27;3.33;;;18.30;93.00;;;;;;5056809;28;20205;-62
2023/07/04 01:44:48;;;;;;;8.83;4.10;;;18.40;92.90;;;;;;5055129;28;20205;-62
2023/07/04 01:47:14;;;;;;;9.80;3.77;;;18.40;93.00;;;;;;5057314;28;20199;-62
2023/07/04 01:49:39;;;;;;;7.57;4.07;;;18.40;92.80;;;;;;5057047;28;20207;-62
2023/07/04 01:52:05;;;;;;;8.37;4.33;;;18.30;93.10;;;;;;5056923;28;20244;-63
2023/07/04 01:54:30;;;;;;;7.00;4.50;;;18.30;93.00;;;;;;5054985;28;20206;-63
2023/07/04 01:56:56;;;;;;;9.77;4.33;;;18.40;93.10;;;;;;5055422;28;20249;-63
2023/07/04 01:59:22;;;;;;;8.13;4.10;;;18.40;93.30;;;;;;5055329;28;20680;-63
2023/07/04 02:01:49;;;;;;;8.57;4.30;;;18.40;93.10;;;;;;5056677;28;20199;-63
2023/07/04 02:04:15;;;;;;;5.90;4.07;;;18.40;93.10;;;;;;5056923;28;20206;-67
2023/07/04 02:06:40;;;;;;;5.90;3.87;;;18.30;93.20;;;;;;5056940;28;20552;-70
2023/07/04 02:09:06;;;;;;;7.47;3.63;;;18.40;93.20;;;;;;5049360;28;20600;-64
2023/07/04 02:11:31;;;;;;;7.50;4.60;;;18.40;93.10;;;;;;5046035;28;20290;-64
2023/07/04 02:13:58;;;;;;;5.67;3.47;;;18.30;93.30;;;;;;5045356;28;20205;-63
2023/07/04 02:16:24;;;;;;;6.60;4.27;;;18.30;93.40;;;;;;5058572;28;20220;-63
2023/07/04 02:18:49;;;;;;;6.07;3.40;;;18.30;93.40;;;;;;5049039;28;20241;-63
2023/07/04 02:21:15;;;;;;;7.67;3.90;;;18.30;93.30;;;;;;5050871;28;20200;-63
2023/07/04 02:23:40;;;;;;;9.37;4.50;;;18.40;93.30;;;;;;5050166;28;20224;-63
2023/07/04 02:26:06;;;;;;;6.07;3.73;;;18.40;93.30;;;;;;5050110;28;20944;-63
2023/07/04 02:28:31;;;;;;;8.20;4.23;;;18.30;93.60;;;;;;5049902;28;20201;-63
2023/07/04 02:30:59;;;;;;;8.87;4.50;;;18.30;93.80;;;;;;5054889;28;20207;-63
2023/07/04 02:33:24;;;;;;;7.67;4.17;;;18.20;93.70;;;;;;5054122;28;20210;-63
2023/07/04 02:35:50;;;;;;;6.57;3.73;;;18.30;93.60;;;;;;5060718;28;20218;-63
2023/07/04 02:38:17;;;;;;;7.67;4.27;;;18.30;93.70;;;;;;5059664;28;20203;-63
2023/07/04 02:40:47;;;;;;;6.53;3.87;;;18.40;93.80;;;;;;5060737;28;20567;-63
2023/07/04 02:43:13;;;;;;;7.53;4.13;;;18.40;93.80;;;;;;5059517;28;20198;-63
2023/07/04 02:45:39;;;;;;;8.93;4.50;;;18.40;93.80;;;;;;5060347;28;20873;-62
2023/07/04 02:48:06;;;;;;;5.90;4.10;;;18.30;94.00;;;;;;5060468;28;20717;-63
2023/07/04 02:50:32;;;;;;;10.23;4.83;;;18.30;94.10;;;;;;5059856;28;20206;-63
2023/07/04 02:52:58;;;;;;;9.17;4.37;;;18.30;94.10;;;;;;5059658;28;20205;-63
2023/07/04 02:55:24;;;;;;;10.43;3.60;;;18.30;94.60;;;;;;5057986;28;20210;-63
2023/07/04 02:57:49;;;;;;;8.57;4.37;;;18.30;94.20;;;;;;5059903;28;20207;-63
2023/07/04 03:00:15;;;;;;;7.00;4.40;;;18.40;94.30;;;;;;5059128;28;20193;-64
2023/07/04 03:02:41;;;;;;;6.80;4.03;;;18.40;94.20;;;;;;5060080;28;20195;-63
2023/07/04 03:05:07;;;;;;;10.67;4.27;;;18.40;94.20;;;;;;5059920;28;20194;-63
2023/07/04 03:07:32;;;;;;;8.40;4.53;;;18.30;94.30;;;;;;5058610;28;20289;-64
2023/07/04 03:09:58;;;;;;;11.63;5.93;;;18.30;94.40;;;;;;5059932;28;20661;-63
2023/07/04 03:12:24;;;;;;;9.40;5.03;;;18.20;95.00;;;;;;5053323;28;20214;-63
2023/07/04 03:14:50;;;;;;;8.57;4.53;;;18.20;94.90;;;;;;5049072;28;20203;-63
2023/07/04 03:17:16;;;;;;;9.93;3.93;;;18.10;95.00;;;;;;5049406;28;20214;-63
2023/07/04 03:19:41;;;;;;;12.00;4.83;;;18.20;95.10;;;;;;5048906;28;20200;-65
2023/07/04 03:22:07;;;;;;;14.77;4.90;;;18.00;95.30;;;;;;5048227;28;20654;-62
2023/07/04 03:24:32;;;;;;;8.37;4.17;;;18.00;95.50;;;;;;5049853;28;20285;-62
2023/07/04 03:26:58;;;;;;;9.17;5.37;;;18.00;95.70;;;;;;5049619;28;20202;-62
2023/07/04 03:29:24;;;;;;;8.10;4.77;;;18.00;95.60;;;;;;5049882;28;20226;-62
2023/07/04 03:31:49;;;;;;;9.40;4.33;;;18.00;95.60;;;;;;5049698;28;20198;-61
2023/07/04 03:34:15;;;;;;;6.80;4.57;;;18.00;95.70;;;;;;5047417;28;20213;-62
2023/07/04 03:36:40;;;;;;;11.03;4.73;;;18.00;95.90;;;;;;5048854;28;20206;-62
2023/07/04 03:39:06;;;;;;;9.93;4.57;;;18.00;95.80;;;;;;5048731;28;20215;-62
2023/07/04 03:41:32;;;;;;;10.33;4.57;;;18.00;95.80;;;;;;5051578;28;20770;-62
2023/07/04 03:43:57;;;;;;;5.87;4.57;;;18.00;95.90;;;;;;5060614;28;20186;-62
2023/07/04 03:46:23;;;;;;;10.67;4.77;;;17.90;96.30;;;;;;5056864;28;20225;-61
2023/07/04 03:48:49;;;;;;;6.07;4.10;;;17.90;96.20;;;;;;5059149;28;20203;-62
2023/07/04 03:51:15;;;;;;;10.67;5.07;;;17.90;96.20;;;;;;5059098;28;20753;-62
2023/07/04 03:53:40;;;;;;;7.47;4.50;;;17.80;96.20;;;;;;5047304;28;20199;-61
2023/07/04 03:56:06;;;;;;;7.97;4.43;;;17.80;96.30;;;;;;5048159;28;20301;-61
2023/07/04 03:58:32;;;;;;;11.30;4.97;;;17.80;96.30;;;;;;5048484;28;20692;-62
2023/07/04 04:00:57;;;;;;;11.47;4.40;;;17.70;96.50;;;;;;5052216;28;20207;-62
2023/07/04 04:03:24;;;;;;;9.07;4.77;;;17.70;96.60;;;;;;5044686;28;20210;-61
2023/07/04 04:05:50;;;;;;;6.83;4.30;;;17.80;96.50;;;;;;5049066;28;20238;-62
2023/07/04 04:08:16;;;;;;;8.03;4.17;;;17.80;96.50;;;;;;5051099;28;20207;-62
2023/07/04 04:10:41;;;;;;;10.67;4.67;;;17.80;96.40;;;;;;5047299;28;20669;-62
2023/07/04 04:13:07;;;;;;;8.80;4.73;;;17.70;96.80;;;;;;5048980;28;20202;-62
2023/07/04 04:15:33;;;;;;;6.73;4.03;;;17.60;96.90;;;;;;5046761;28;20207;-63
2023/07/04 04:17:58;;;;;;;10.60;4.30;;;17.60;96.90;;;;;;5048104;28;20197;-64
2023/07/04 04:20:25;;;;;;;6.70;4.13;;;17.70;96.80;;;;;;5052700;28;20232;-64
2023/07/04 04:22:50;;;;;;;7.00;4.60;;;17.70;97.00;;;;;;5048014;28;20543;-64
2023/07/04 04:25:16;;;;;;;10.27;5.00;;;17.70;96.50;;;;;;5054224;28;20765;-64
2023/07/04 04:27:43;;;;;;;8.90;4.53;;;17.80;96.90;;;;;;5055592;28;20206;-63
2023/07/04 04:30:10;;;;;;;9.20;4.80;;;17.70;97.10;;;;;;5047331;28;20764;-64
2023/07/04 04:32:37;;;;;;;14.07;4.93;;;17.60;97.70;;;;;;5050857;28;20206;-64
2023/07/04 04:35:04;;;;;;;6.47;4.90;;;17.50;98.20;;;;;;5046274;28;20210;-64
2023/07/04 04:37:30;;;;;;;8.33;4.70;;;17.60;98.20;;;;;;5045914;28;20792;-64
2023/07/04 04:39:56;;;;;;;9.27;4.87;;;17.70;97.70;;;;;;5047082;28;20740;-64
2023/07/04 04:42:23;;;;;;;6.87;4.77;;;17.70;98.00;;;;;;5047647;28;20199;-62
2023/07/04 04:44:53;;;;;;;8.17;4.50;;;17.80;97.80;;;;;;5047270;28;20230;-63
2023/07/04 04:47:23;;;;;;;12.53;4.17;;;17.80;97.60;;;;;;5045686;28;20204;-62
2023/07/04 04:49:50;;;;;;;7.17;4.40;;;17.80;97.90;;;;;;5048113;28;20211;-62
2023/07/04 04:52:15;;;;;;;13.30;4.60;;;17.80;97.70;;;;;;5048081;28;20216;-62
2023/07/04 04:54:41;;;;;;;6.53;4.00;;;17.80;97.60;;;;;;5047980;28;20206;-62
2023/07/04 04:57:06;;;;;;;9.63;4.53;;;17.80;98.00;;;;;;5047964;28;20211;-63
2023/07/04 04:59:32;;;;;;;5.17;4.10;;;17.90;98.30;;;;;;5044518;28;20198;-63
2023/07/04 05:01:57;;;;;;;7.27;3.80;;;17.80;98.80;;;;;;5047404;28;20310;-62
2023/07/04 05:04:23;;;;;;;17.20;5.40;;;17.70;98.90;;;;;;5047036;28;20211;-62
2023/07/04 05:06:49;;;;;;;9.07;4.43;;;17.90;98.50;;;;;;5050581;28;20197;-64
2023/07/04 05:09:15;;;;;;;11.60;4.80;;;17.90;98.80;;;;;;5052437;28;20221;-62
2023/07/04 05:11:40;;;;;;;8.87;4.50;;;17.80;99.10;;;;;;5045997;28;20205;-64
2023/07/04 05:14:07;;;;;;;9.33;4.00;;;17.90;98.40;;;;;;5049335;28;20198;-63
2023/07/04 05:16:32;;;;;;;10.60;5.00;;;17.80;99.80;;;;;;5050601;28;20263;-64
2023/07/04 05:18:58;;;;;;;8.27;4.00;;;17.70;99.70;;;;;;5049136;28;20195;-64
2023/07/04 05:21:24;;;;;;;10.40;4.60;;;17.70;99.70;;;;;;5046429;28;20255;-62
2023/07/04 05:23:52;;;;;;;8.07;4.43;;;17.70;99.70;;;;;;5044363;28;20264;-64
2023/07/04 05:26:23;;;;;;;8.03;4.27;;;17.60;99.90;;;;;;5053105;28;20203;-64
2023/07/04 05:28:50;;;;;;;11.23;5.17;;;17.60;99.90;;;;;;5046449;28;20210;-64
2023/07/04 05:31:20;;;;;;;9.07;4.90;;;17.60;99.90;;;;;;5046632;28;20305;-64
2023/07/04 05:33:46;;;;;;;8.57;4.80;;;17.60;99.90;;;;;;5043141;28;20218;-63
2023/07/04 05:36:22;;;;;;;6.67;4.83;;;17.60;99.90;;;;;;5047750;28;20215;-64
2023/07/04 05:38:52;;;;;;;6.73;4.40;;;17.50;99.90;;;;;;5047359;28;20259;-68
2023/07/04 05:41:20;;;;;;;6.77;4.73;;;17.50;99.90;;;;;;5046843;28;20254;-69
2023/07/04 05:43:46;;;;;;;6.63;4.80;;;17.70;99.90;;;;;;5046278;28;20204;-72
2023/07/04 05:46:13;;;;;;;11.83;5.67;;;17.80;99.90;;;;;;5047149;28;20253;-74
2023/07/04 05:48:39;;;;;;;8.20;4.57;;;17.90;99.90;;;;;;5047164;28;20198;-72
2023/07/04 05:51:07;;;;;;;9.57;5.20;;;17.90;99.90;;;;;;5048993;28;20199;-71
2023/07/04 05:53:35;;;;;;;9.00;4.67;;;17.90;99.90;;;;;;5051558;28;20300;-72
2023/07/04 05:56:11;;;;;;;9.03;4.47;;;18.00;99.90;;;;;;5051125;28;20223;-72
2023/07/04 05:58:38;;;;;;;8.53;4.13;;;18.00;99.90;;;;;;5052001;28;20201;-71
2023/07/04 06:01:13;;;;;;;7.30;4.17;;;17.80;99.90;;;;;;5051855;28;20616;-72
2023/07/04 06:03:39;;;;;;;11.40;4.13;;;17.90;99.90;;;;;;5051014;28;20195;-71
2023/07/04 06:06:07;;;;;;;9.50;3.67;;;18.00;99.90;;;;;;5047843;28;20223;-72
2023/07/04 06:08:33;;;;;;;6.83;4.60;;;18.00;99.90;;;;;;5049754;28;20655;-74
2023/07/04 06:11:04;;;;;;;7.17;3.73;;;18.10;99.90;;;;;;5051209;28;20277;-75
2023/07/04 06:13:30;;;;;;;6.67;3.20;;;18.10;99.90;;;;;;5051601;28;20206;-75
2023/07/04 06:15:57;;;;;;;8.07;4.17;;;18.00;99.90;;;;;;5051074;28;20606;-71
2023/07/04 06:18:23;;;;;;;6.77;3.40;;;17.90;99.90;;;;;;5048054;28;20217;-75
2023/07/04 06:20:48;;;;;;;5.23;3.53;;;17.90;99.90;;;;;;5050210;28;20190;-77
2023/07/04 06:23:14;;;;;;;7.33;3.50;;;18.00;99.90;;;;;;5050536;28;20214;-70
2023/07/04 06:25:40;;;;;;;5.67;3.30;;;17.90;99.90;;;;;;5050477;28;20229;-70
2023/07/04 06:28:05;;;;;;;5.80;3.40;;;17.90;99.90;;;;;;5050219;28;20204;-69
2023/07/04 06:30:34;;;;;;;8.30;2.73;;;17.90;99.90;;;;;;5049339;28;20198;-70
2023/07/04 06:33:02;;;;;;;7.07;3.07;;;18.00;99.90;;;;;;5049764;28;20339;-69
2023/07/04 06:35:27;;;;;;;3.00;2.70;;;18.00;99.90;;;;;;5051102;28;20212;-69
2023/07/04 06:37:53;;;;;;;4.67;2.73;;;18.30;99.90;;;;;;5058647;28;20195;-72
2023/07/04 06:40:18;;;;;;;4.23;2.80;;;18.30;99.90;;;;;;5050954;28;20313;-71
2023/07/04 06:42:44;;;;;;;5.53;3.37;;;18.20;99.90;;;;;;5051254;28;20187;-74
2023/07/04 06:45:09;;;;;;;7.47;3.80;;;18.10;99.90;;;;;;5048395;28;20187;-72
2023/07/04 06:47:35;;;;;;;4.77;2.67;;;18.10;99.90;;;;;;5049989;28;20860;-72
2023/07/04 06:50:00;;;;;;;5.00;3.40;;;18.10;99.90;;;;;;5050176;28;20205;-73
2023/07/04 06:52:26;;;;;;;5.07;3.00;;;18.10;99.90;;;;;;5045852;28;20816;-72
2023/07/04 06:54:52;;;;;;;3.20;2.63;;;18.10;99.90;;;;;;5049304;28;20204;-72
2023/07/04 06:57:19;;;;;;;5.53;2.87;;;18.10;99.90;;;;;;5054195;28;20217;-72
2023/07/04 06:59:45;;;;;;;5.87;2.30;;;18.10;99.90;;;;;;5046540;28;20328;-73
2023/07/04 07:02:14;;;;;;;6.00;2.57;;;18.20;99.90;;;;;;5051066;28;20734;-74
2023/07/04 07:04:41;;;;;;;6.37;2.37;;;18.40;99.90;;;;;;5049907;28;20199;-73
2023/07/04 07:07:09;;;;;;;5.37;2.33;;;18.40;99.90;;;;;;5050488;28;20285;-73
2023/07/04 07:09:37;;;;;;;4.53;2.67;;;18.40;99.90;;;;;;5050473;28;20224;-72
2023/07/04 07:12:03;;;;;;;4.30;2.57;;;18.30;99.90;;;;;;5049810;28;20208;-73
2023/07/04 07:14:29;;;;;;;4.67;3.00;;;18.30;99.90;;;;;;5049939;28;20204;-71
2023/07/04 07:16:56;;;;;;;6.90;2.60;;;18.20;99.90;;;;;;5049835;28;20211;-74
2023/07/04 07:19:23;;;;;;;4.10;2.80;;;18.40;99.90;;;;;;5047933;28;20707;-70
2023/07/04 07:21:49;;;;;;;5.30;2.90;;;18.50;99.90;;;;;;5062412;28;20203;-71
2023/07/04 07:24:14;;;;;;;9.37;3.93;;;18.70;99.90;;;;;;5067464;28;20229;-70
2023/07/04 07:26:40;;;;;;;5.50;3.57;;;18.70;99.50;;;;;;5063993;28;20212;-73
2023/07/04 07:29:05;;;;;;;6.03;2.80;;;18.70;99.40;;;;;;5059983;28;20224;-69
2023/07/04 07:31:31;;;;;;;8.23;3.97;;;18.80;99.90;;;;;;5061130;28;20244;-70
2023/07/04 07:33:56;;;;;;;7.97;2.93;;;18.80;99.90;;;;;;5057799;28;20205;-70
2023/07/04 07:36:37;;;;;;;4.07;2.73;;;18.80;99.90;;;;;;5058943;28;20266;-69
2023/07/04 07:39:04;;;;;;;7.40;3.47;;;18.90;99.20;;;;;;5062162;28;20224;-71
2023/07/04 07:41:32;;;;;;;6.37;3.27;;;19.00;98.70;;;;;;5057689;28;20201;-70
2023/07/04 07:43:57;;;;;;;5.90;3.33;;;18.90;99.20;;;;;;5063576;28;20221;-70
2023/07/04 07:46:24;;;;;;;6.00;3.60;;;19.10;98.20;;;;;;5058581;28;20842;-70
2023/07/04 07:48:50;;;;;;;5.80;3.27;;;19.10;98.00;;;;;;5057720;28;20209;-68
2023/07/04 07:51:17;;;;;;;4.20;3.03;;;19.10;97.80;;;;;;5064962;28;20217;-68
2023/07/04 07:53:44;;;;;;;8.40;3.80;;;19.00;98.40;;;;;;5068512;28;20254;-68
2023/07/04 07:56:11;;;;;;;7.90;3.03;;;19.00;99.40;;;;;;5060298;28;20223;-72
2023/07/04 07:58:38;;;;;;;4.47;2.57;;;19.20;98.60;;;;;;5058433;28;20279;-68
2023/07/04 08:01:10;;;;;;;5.20;2.73;;;19.40;97.70;;;;;;5057173;28;20195;-70
2023/07/04 08:03:35;;;;;;;7.90;3.23;;;19.40;96.30;;;;;;5058638;28;20194;-70
2023/07/04 08:06:01;;;;;;;4.83;2.67;;;19.40;96.80;;;;;;5059771;28;20315;-73
2023/07/04 08:08:26;;;;;;;4.30;1.93;;;19.50;96.80;;;;;;5056372;28;20226;-73
2023/07/04 08:10:51;;;;;;;6.07;3.10;;;19.50;96.10;;;;;;5058483;28;20223;-74
2023/07/04 08:13:18;;;;;;;7.23;3.20;;;19.30;96.90;;;;;;5058668;28;20202;-74
2023/07/04 08:15:53;;;;;;;8.07;2.93;;;19.30;97.70;;;;;;5058062;28;20265;-71
2023/07/04 08:18:20;;;;;;;4.90;2.80;;;19.40;96.00;;;;;;5058614;28;20204;-68
2023/07/04 08:20:59;;;;;;;3.60;2.13;;;19.40;95.80;;;;;;5057524;28;20205;-69
2023/07/04 08:23:25;;;;;;;4.20;2.13;;;19.40;96.10;;;;;;5056858;28;20292;-72
2023/07/04 08:25:51;;;;;;;4.97;2.57;;;19.40;95.80;;;;;;5061215;28;20692;-75
2023/07/04 08:28:17;;;;;;;3.43;2.40;;;19.50;96.20;;;;;;5068981;28;20709;-73
2023/07/04 08:30:43;;;;;;;3.07;2.60;;;19.50;96.00;;;;;;5065273;28;20204;-70
2023/07/04 08:33:08;;;;;;;3.53;2.80;;;19.50;96.60;;;;;;5053780;28;20205;-74
2023/07/04 08:35:34;;;;;;;7.60;2.83;;;19.60;95.80;;;;;;5048022;28;20209;-74
2023/07/04 08:37:59;;;;;;;5.83;2.63;;;19.70;95.20;;;;;;5046745;28;20231;-71
2023/07/04 08:40:25;;;;;;;5.60;2.47;;;19.70;94.90;;;;;;5045718;28;20229;-72
2023/07/04 08:42:50;;;;;;;3.97;2.80;;;19.70;95.30;;;;;;5046962;28;20211;-71
2023/07/04 08:45:24;;;;;;;4.80;2.60;;;19.80;94.80;;;;;;5044902;28;20603;-72
2023/07/04 08:47:51;;;;;;;6.83;2.50;;;20.00;95.00;;;;;;5047866;28;20229;-72
2023/07/04 08:50:27;;;;;;;7.87;2.93;;;20.10;94.50;;;;;;5051836;28;20212;-73
2023/07/04 08:53:05;;;;;;;6.07;2.47;;;19.90;94.40;;;;;;5056342;28;20276;-71
2023/07/04 08:55:34;;;;;;;2.43;2.23;;;19.90;94.50;;;;;;5057699;28;20304;-72
2023/07/04 08:58:02;;;;;;;6.47;2.40;;;19.90;93.10;;;;;;5055322;28;20203;-71
2023/07/04 09:00:35;;;;;;;3.57;2.30;;;19.90;93.40;;;;;;5058139;28;20231;-70
2023/07/04 09:03:22;;;;;;;5.40;2.63;;;19.90;92.60;;;;;;5057560;28;20676;-70
2023/07/04 09:06:03;;;;;;;3.83;2.63;;;19.90;93.40;;;;;;5057412;28;22525;-70
2023/07/04 09:08:51;;;;;;;3.73;2.50;;;19.90;93.90;;;;;;5053442;28;20260;-74
2023/07/04 09:11:18;;;;;;;2.93;2.07;;;19.90;93.10;;;;;;5046146;28;20211;-71
2023/07/04 09:13:49;;;;;;;3.60;2.20;;;20.10;93.10;;;;;;5045906;28;20209;-77
2023/07/04 09:16:22;;;;;;;7.13;2.43;;;20.10;93.50;;;;;;5046660;28;20540;-71
2023/07/04 09:19:02;;;;;;;3.67;2.50;;;20.20;92.80;;;;;;5044687;28;20285;-72
2023/07/04 09:21:30;;;;;;;5.10;2.23;;;20.10;93.70;;;;;;5061981;28;20205;-71
2023/07/04 09:23:58;;;;;;;4.93;2.30;;;20.00;92.70;;;;;;5066501;28;20289;-73
2023/07/04 09:26:28;;;;;;;4.77;2.20;;;19.90;93.40;;;;;;5065946;28;20186;-72
2023/07/04 09:28:56;;;;;;;3.13;2.07;;;20.00;91.80;;;;;;5065889;28;20599;-76
2023/07/04 09:31:31;;;;;;;4.67;2.40;;;20.00;91.40;;;;;;5059293;28;20345;-71
2023/07/04 09:34:00;;;;;;;2.23;1.50;;;19.90;92.60;;;;;;5059672;28;20991;-69
2023/07/04 09:36:30;;;;;;;2.20;2.00;;;20.10;92.20;;;;;;5053490;28;20223;-72
2023/07/04 09:38:58;;;;;;;8.53;2.63;;;20.20;92.20;;;;;;5057102;28;20646;-72
2023/07/04 09:41:25;;;;;;;5.83;2.10;;;20.30;91.60;;;;;;5054943;28;20566;-72
2023/07/04 09:43:56;;;;;;;7.83;2.23;;;20.50;90.60;;;;;;5058564;28;20208;-71
2023/07/04 09:46:30;;;;;;;2.93;2.23;;;20.50;90.70;;;;;;5055397;28;20671;-72
2023/07/04 09:49:21;;;;;;;3.27;1.77;;;20.50;90.90;;;;;;5052824;28;20214;-72
2023/07/04 09:52:11;;;;;;;4.00;2.27;;;20.50;90.30;;;;;;5054996;28;20565;-72
2023/07/04 09:54:39;;;;;;;2.47;1.60;;;20.50;90.50;;;;;;5048808;28;20590;-72
2023/07/04 09:57:24;;;;;;;4.77;1.80;;;20.70;90.30;;;;;;5056537;28;20271;-73
2023/07/04 09:59:51;;;;;;;3.87;2.03;;;20.90;87.80;;;;;;5056581;28;20228;-69
2023/07/04 10:02:24;;;;;;;4.10;2.17;;;20.90;87.20;;;;;;5055254;28;20212;-70
2023/07/04 10:04:50;;;;;;;3.40;1.50;;;20.90;86.70;;;;;;5062197;28;20202;-73
2023/07/04 10:07:19;;;;;;;2.40;1.83;;;20.80;86.10;;;;;;5066822;28;20198;-71
2023/07/04 10:10:01;;;;;;;2.80;1.43;;;20.70;85.80;;;;;;5064025;28;20606;-72
2023/07/04 10:12:30;;;;;;;4.57;1.50;;;20.90;85.00;;;;;;5066298;28;20208;-70
2023/07/04 10:14:58;;;;;;;5.47;2.00;;;20.90;85.10;;;;;;5065733;28;20197;-71
2023/07/04 10:17:26;;;;;;;3.70;1.73;;;20.90;85.00;;;;;;5066274;28;20275;-71
2023/07/04 10:19:57;;;;;;;2.43;1.87;;;21.00;83.30;;;;;;5062634;28;20196;-75
2023/07/04 10:22:25;;;;;;;2.73;1.77;;;20.80;83.10;;;;;;5066834;28;20200;-71
2023/07/04 10:24:51;;;;;;;3.30;1.93;;;20.80;83.90;;;;;;5064993;28;20447;-69
2023/07/04 10:27:24;;;;;;;6.30;1.80;;;20.80;83.30;;;;;;5064397;28;20205;-72
2023/07/04 10:29:54;;;;;;;2.70;2.37;;;21.00;81.10;;;;;;5063113;28;20201;-71
2023/07/04 10:32:23;;;;;;;3.77;2.23;;;21.00;82.10;;;;;;5054581;28;20365;-72
2023/07/04 10:34:51;;;;;;;3.00;1.83;;;21.10;81.30;;;;;;5050222;28;20634;-73
2023/07/04 10:37:34;;;;;;;2.50;2.00;;;21.10;82.30;;;;;;5050191;28;20705;-69
2023/07/04 10:40:14;;;;;;;3.77;2.37;;;21.30;83.40;;;;;;5053178;28;20224;-69
2023/07/04 10:43:06;;;;;;;3.27;1.80;;;21.30;81.80;;;;;;5056547;28;20200;-68
2023/07/04 10:45:34;;;;;;;3.47;2.47;;;21.20;82.70;;;;;;5056420;28;20210;-71
2023/07/04 10:48:09;;;;;;;3.13;2.00;;;21.00;83.70;;;;;;5063565;28;20595;-67
2023/07/04 10:51:01;;;;;;;4.27;2.10;;;21.00;83.80;;;;;;5061511;28;20259;-80
2023/07/04 10:53:34;;;;;;;4.57;1.93;;;21.20;84.30;;;;;;5053768;28;20700;-72
2023/07/04 10:56:16;;;;;;;4.67;2.70;;;20.90;84.10;;;;;;5053743;28;20221;-72
2023/07/04 10:58:46;;;;;;;4.60;2.50;;;20.80;84.30;;;;;;5053095;28;20202;-72
2023/07/04 11:01:39;;;;;;;2.70;2.00;;;20.50;86.10;;;;;;5046998;28;20662;-72
2023/07/04 11:04:19;;;;;;;6.93;2.07;;;20.30;85.70;;;;;;5050272;28;20198;-71
2023/07/04 11:06:58;;;;;;;6.43;2.57;;;20.10;87.10;;;;;;5058848;28;20207;-71
2023/07/04 11:09:31;;;;;;;3.63;2.13;;;20.40;87.80;;;;;;5056481;28;20214;-71
2023/07/04 11:12:04;;;;;;;3.07;2.10;;;20.50;87.40;;;;;;5057818;28;20823;-72
2023/07/04 11:14:36;;;;;;;4.60;2.27;;;20.70;86.90;;;;;;5054700;28;20199;-72
2023/07/04 11:17:05;;;;;;;5.13;2.70;;;20.70;85.60;;;;;;5046908;28;20213;-72
2023/07/04 11:19:34;;;;;;;3.13;2.00;;;20.60;86.30;;;;;;5052599;28;20646;-72
2023/07/04 11:22:05;;;;;;;3.93;2.30;;;20.80;86.50;;;;;;5050081;28;20212;-71
2023/07/04 11:24:37;;;;;;;3.43;2.43;;;20.60;88.00;;;;;;5048966;28;20211;-72
2023/07/04 11:27:11;;;;;;;3.73;2.20;;;20.30;87.00;;;;;;5049910;28;20247;-71
2023/07/04 11:30:05;;;;;;;5.30;2.60;;;20.20;87.40;;;;;;5046564;28;20258;-71
2023/07/04 11:32:37;;;;;;;5.03;2.90;;;20.10;88.70;;;;;;5049040;28;20239;-71
2023/07/04 11:35:13;;;;;;;6.73;2.77;;;20.10;88.80;;;;;;5048459;28;20292;-71
2023/07/04 11:37:54;;;;;;;5.60;2.87;;;20.20;88.10;;;;;;5049120;28;20218;-71
2023/07/04 11:40:29;;;;;;;4.33;3.00;;;20.10;88.50;;;;;;5046205;28;20762;-71
2023/07/04 11:43:03;;;;;;;4.27;2.57;;;20.10;87.20;;;;;;5050539;28;20676;-71
2023/07/04 11:45:30;;;;;;;3.43;2.57;;;20.30;87.10;;;;;;5048650;28;20213;-71
2023/07/04 11:48:10;;;;;;;8.93;2.83;;;20.50;86.60;;;;;;5048545;28;20197;-71
2023/07/04 11:50:50;;;;;;;4.10;2.50;;;20.80;86.50;;;;;;5046875;28;20312;-71
2023/07/04 11:53:23;;;;;;;8.03;2.80;;;21.00;86.10;;;;;;5049322;28;20201;-71
2023/07/04 11:56:16;;;;;;;6.33;3.03;;;21.10;86.40;;;;;;5047056;28;20297;-71
2023/07/04 11:58:42;;;;;;;5.87;2.40;;;21.20;84.80;;;;;;5048691;28;20675;-72
2023/07/04 12:01:08;;;;;;;4.97;2.70;;;21.60;84.60;;;;;;5044606;28;20777;-71
2023/07/04 12:03:44;;;;;;;5.03;2.63;;;22.20;81.60;;;;;;5049110;28;20199;-71
2023/07/04 12:06:42;;;;;;;5.80;2.50;;;22.50;80.60;;;;;;5049003;28;20256;-71
2023/07/04 12:09:12;;;;;;;5.37;2.93;;;22.80;81.10;;;;;;5045604;28;20219;-71
2023/07/04 12:11:43;;;;;;;5.13;3.27;;;22.70;81.30;;;;;;5044535;28;20226;-71
2023/07/04 12:14:12;;;;;;;6.90;3.20;;;22.40;80.50;;;;;;5049750;28;20724;-71
2023/07/04 12:16:40;;;;;;;5.47;2.67;;;22.10;81.20;;;;;;5048429;28;20787;-71
2023/07/04 12:19:05;;;;;;;6.18;2.92;;;22.60;79.90;;;;;;5046186;28;20205;-71
2023/07/04 12:21:32;;;;;;;8.40;3.23;;;22.50;80.80;;;;;;5047920;28;20198;-71
2023/07/04 12:24:02;;;;;;;5.27;2.83;;;22.40;81.70;;;;;;5047870;28;20209;-71
2023/07/04 12:26:30;;;;;;;3.43;3.13;;;22.10;82.10;;;;;;5047670;28;20210;-71
2023/07/04 12:28:56;;;;;;;7.23;2.80;;;22.20;83.40;;;;;;5048282;28;20250;-69
2023/07/04 12:31:21;;;;;;;4.43;2.70;;;22.60;82.70;;;;;;5043638;28;20218;-70
2023/07/04 12:33:52;;;;;;;4.23;3.07;;;22.60;80.10;;;;;;5047101;28;20305;-71
2023/07/04 12:36:21;;;;;;;4.43;2.93;;;22.70;80.70;;;;;;5041723;28;20219;-72
2023/07/04 12:38:53;;;;;;;6.93;2.90;;;22.70;79.70;;;;;;5051803;28;20836;-74
2023/07/04 12:41:22;;;;;;;4.20;3.23;;;22.60;81.30;;;;;;5056531;28;20248;-75
2023/07/04 12:44:00;;;;;;;5.13;3.30;;;23.00;78.50;;;;;;5058167;28;20194;-73
2023/07/04 12:46:28;;;;;;;5.17;3.03;;;23.00;78.50;;;;;;5059942;28;20960;-72
2023/07/04 12:48:54;;;;;;;5.97;2.72;;;23.30;78.20;;;;;;5047432;28;20202;-73
2023/07/04 12:51:23;;;;;;;6.63;3.80;;;23.70;77.10;;;;;;5053959;28;20197;-73
2023/07/04 12:53:49;;;;;;;10.68;3.13;;;23.70;75.00;;;;;;5059706;28;20290;-74
2023/07/04 12:56:16;;;;;;;4.40;2.53;;;23.80;75.10;;;;;;5059520;28;20221;-70